sensor_id;sensor_type;location;lat;lon;timestamp;temperature;humidity
34646;DHT22;20857;47.808;12.482;2023-07-13T00:01:48;17.90;99.90
34646;DHT22;20857;47.808;12.482;2023-07-13T00:04:16;17.80;99.90
34646;DHT22;20857;47.808;12.482;2023-07-13T00:06:44;17.80;99.90
34646;DHT22;20857;47.808;12.482;2023-07-13T00:09:14;17.80;99.90
34646;DHT22;20857;47.808;12.482;2023-07-13T00:11:40;17.80;99.90
34646;DHT22;20857;47.808;12.482;2023-07-13T00:14:07;17.70;99.90
34646;DHT22;20857;47.808;12.482;2023-07-13T00:16:35;17.70;99.90
34646;DHT22;20857;47.808;12.482;2023-07-13T00:19:01;17.70;99.90
34646;DHT22;20857;47.808;12.482;2023-07-13T00:21:27;17.70;99.90
34646;DHT22;20857;47.808;12.482;2023-07-13T00:23:52;17.70;99.90
34646;DHT22;20857;47.808;12.482;2023-07-13T00:26:18;17.70;99.90
34646;DHT22;20857;47.808;12.482;2023-07-13T00:28:43;17.60;99.90
34646;DHT22;20857;47.808;12.482;2023-07-13T00:31:11;17.60;99.90
34646;DHT22;20857;47.808;12.482;2023-07-13T00:33:36;17.60;99.90
34646;DHT22;20857;47.808;12.482;2023-07-13T00:36:03;17.60;99.90
34646;DHT22;20857;47.808;12.482;2023-07-13T00:38:29;17.60;99.90
34646;DHT22;20857;47.808;12.482;2023-07-13T00:40:55;17.60;99.90
34646;DHT22;20857;47.808;12.482;2023-07-13T00:43:22;17.70;99.90
34646;DHT22;20857;47.808;12.482;2023-07-13T00:48:23;17.60;99.90
34646;DHT22;20857;47.808;12.482;2023-07-13T00:50:53;17.70;99.90
34646;DHT22;20857;47.808;12.482;2023-07-13T00:53:19;17.60;99.90
34646;DHT22;20857;47.808;12.482;2023-07-13T00:55:47;17.60;99.90
34646;DHT22;20857;47.808;12.482;2023-07-13T00:58:14;17.70;99.90
34646;DHT22;20857;47.808;12.482;2023-07-13T01:00:40;17.70;99.90
34646;DHT22;20857;47.808;12.482;2023-07-13T01:03:05;17.70;99.90
34646;DHT22;20857;47.808;12.482;2023-07-13T01:05:33;17.70;99.90
34646;DHT22;20857;47.808;12.482;2023-07-13T01:08:00;17.70;99.90
34646;DHT22;20857;47.808;12.482;2023-07-13T01:10:27;17.60;99.90
34646;DHT22;20857;47.808;12.482;2023-07-13T01:12:53;17.70;99.90
34646;DHT22;20857;47.808;12.482;2023-07-13T01:15:41;17.70;99.90
34646;DHT22;20857;47.808;12.482;2023-07-13T01:18:10;17.70;99.90
34646;DHT22;20857;47.808;12.482;2023-07-13T01:20:39;17.70;99.90
34646;DHT22;20857;47.808;12.482;2023-07-13T01:23:10;17.70;99.90
34646;DHT22;20857;47.808;12.482;2023-07-13T01:25:37;17.70;99.90
34646;DHT22;20857;47.808;12.482;2023-07-13T01:28:04;17.60;99.90
34646;DHT22;20857;47.808;12.482;2023-07-13T01:30:30;17.60;99.90
34646;DHT22;20857;47.808;12.482;2023-07-13T01:32:57;17.60;99.90
34646;DHT22;20857;47.808;12.482;2023-07-13T01:35:23;17.50;99.90
34646;DHT22;20857;47.808;12.482;2023-07-13T01:37:51;17.50;99.90
34646;DHT22;20857;47.808;12.482;2023-07-13T01:40:16;17.50;99.90
34646;DHT22;20857;47.808;12.482;2023-07-13T01:42:42;17.50;99.90
34646;DHT22;20857;47.808;12.482;2023-07-13T01:45:08;17.50;99.90
34646;DHT22;20857;47.808;12.482;2023-07-13T01:47:33;17.50;99.90
34646;DHT22;20857;47.808;12.482;2023-07-13T01:49:59;17.50;99.90
34646;DHT22;20857;47.808;12.482;2023-07-13T01:52:24;17.50;99.90
34646;DHT22;20857;47.808;12.482;2023-07-13T01:54:50;17.60;99.90
34646;DHT22;20857;47.808;12.482;2023-07-13T01:57:16;17.60;99.90
34646;DHT22;20857;47.808;12.482;2023-07-13T01:59:41;17.50;99.90
34646;DHT22;20857;47.808;12.482;2023-07-13T02:02:07;17.50;99.90
34646;DHT22;20857;47.808;12.482;2023-07-13T02:04:33;17.50;99.90
34646;DHT22;20857;47.808;12.482;2023-07-13T02:06:59;17.50;99.90
34646;DHT22;20857;47.808;12.482;2023-07-13T02:09:24;17.50;99.90
34646;DHT22;20857;47.808;12.482;2023-07-13T02:11:50;17.50;99.90
34646;DHT22;20857;47.808;12.482;2023-07-13T02:14:15;17.40;99.90
34646;DHT22;20857;47.808;12.482;2023-07-13T02:16:41;17.40;99.90
34646;DHT22;20857;47.808;12.482;2023-07-13T02:19:07;17.40;99.90
34646;DHT22;20857;47.808;12.482;2023-07-13T02:21:33;17.40;99.90
34646;DHT22;20857;47.808;12.482;2023-07-13T02:23:59;17.40;99.90
34646;DHT22;20857;47.808;12.482;2023-07-13T02:26:25;17.40;99.90
34646;DHT22;20857;47.808;12.482;2023-07-13T02:28:51;17.30;99.90
34646;DHT22;20857;47.808;12.482;2023-07-13T02:31:17;17.30;99.90
34646;DHT22;20857;47.808;12.482;2023-07-13T02:33:43;17.30;99.90
34646;DHT22;20857;47.808;12.482;2023-07-13T02:36:08;17.40;99.90
34646;DHT22;20857;47.808;12.482;2023-07-13T02:38:35;17.40;99.90
34646;DHT22;20857;47.808;12.482;2023-07-13T02:41:02;17.40;99.90
34646;DHT22;20857;47.808;12.482;2023-07-13T02:43:28;17.40;99.90
34646;DHT22;20857;47.808;12.482;2023-07-13T02:45:53;17.40;99.90
34646;DHT22;20857;47.808;12.482;2023-07-13T02:48:19;17.40;99.90
34646;DHT22;20857;47.808;12.482;2023-07-13T02:50:45;17.40;99.90
34646;DHT22;20857;47.808;12.482;2023-07-13T02:53:10;17.40;99.90
34646;DHT22;20857;47.808;12.482;2023-07-13T02:55:36;17.40;99.90
34646;DHT22;20857;47.808;12.482;2023-07-13T02:58:02;17.40;99.90
34646;DHT22;20857;47.808;12.482;2023-07-13T03:00:27;17.40;99.90
34646;DHT22;20857;47.808;12.482;2023-07-13T03:02:53;17.40;99.90
34646;DHT22;20857;47.808;12.482;2023-07-13T03:05:23;17.40;99.90
34646;DHT22;20857;47.808;12.482;2023-07-13T03:07:48;17.40;99.90
34646;DHT22;20857;47.808;12.482;2023-07-13T03:10:14;17.40;99.90
34646;DHT22;20857;47.808;12.482;2023-07-13T03:12:40;17.40;99.90
34646;DHT22;20857;47.808;12.482;2023-07-13T03:15:06;17.40;99.90
34646;DHT22;20857;47.808;12.482;2023-07-13T03:17:31;17.40;99.90
34646;DHT22;20857;47.808;12.482;2023-07-13T03:19:57;17.40;99.90
34646;DHT22;20857;47.808;12.482;2023-07-13T03:22:23;17.40;99.90
34646;DHT22;20857;47.808;12.482;2023-07-13T03:24:48;17.40;99.90
34646;DHT22;20857;47.808;12.482;2023-07-13T03:27:16;17.50;99.90
34646;DHT22;20857;47.808;12.482;2023-07-13T03:29:42;17.50;99.90
34646;DHT22;20857;47.808;12.482;2023-07-13T03:32:08;17.60;99.90
34646;DHT22;20857;47.808;12.482;2023-07-13T03:34:33;17.60;99.90
34646;DHT22;20857;47.808;12.482;2023-07-13T03:36:59;17.60;99.90
34646;DHT22;20857;47.808;12.482;2023-07-13T03:39:25;17.60;99.90
34646;DHT22;20857;47.808;12.482;2023-07-13T03:41:50;17.60;99.90
34646;DHT22;20857;47.808;12.482;2023-07-13T03:44:17;17.60;99.90
34646;DHT22;20857;47.808;12.482;2023-07-13T03:46:43;17.60;99.90
34646;DHT22;20857;47.808;12.482;2023-07-13T03:49:09;17.60;99.90
34646;DHT22;20857;47.808;12.482;2023-07-13T03:51:35;17.60;99.90
34646;DHT22;20857;47.808;12.482;2023-07-13T03:54:01;17.60;99.90
34646;DHT22;20857;47.808;12.482;2023-07-13T03:56:28;17.60;99.90
34646;DHT22;20857;47.808;12.482;2023-07-13T03:58:54;17.60;99.90
34646;DHT22;20857;47.808;12.482;2023-07-13T04:01:21;17.50;99.90
34646;DHT22;20857;47.808;12.482;2023-07-13T04:03:47;17.50;99.90
34646;DHT22;20857;47.808;12.482;2023-07-13T04:06:16;17.50;99.90
34646;DHT22;20857;47.808;12.482;2023-07-13T04:08:48;17.50;99.90
34646;DHT22;20857;47.808;12.482;2023-07-13T04:11:16;17.50;99.90
34646;DHT22;20857;47.808;12.482;2023-07-13T04:13:41;17.50;99.90
34646;DHT22;20857;47.808;12.482;2023-07-13T04:16:07;17.50;99.90
34646;DHT22;20857;47.808;12.482;2023-07-13T04:18:32;17.60;99.90
34646;DHT22;20857;47.808;12.482;2023-07-13T04:20:58;17.60;99.90
34646;DHT22;20857;47.808;12.482;2023-07-13T04:23:24;17.60;99.90
34646;DHT22;20857;47.808;12.482;2023-07-13T04:25:52;17.60;99.90
34646;DHT22;20857;47.808;12.482;2023-07-13T04:28:23;17.60;99.90
34646;DHT22;20857;47.808;12.482;2023-07-13T04:30:49;17.60;99.90
34646;DHT22;20857;47.808;12.482;2023-07-13T04:33:15;17.70;99.90
34646;DHT22;20857;47.808;12.482;2023-07-13T04:35:42;17.70;99.90
34646;DHT22;20857;47.808;12.482;2023-07-13T04:38:08;17.70;99.90
34646;DHT22;20857;47.808;12.482;2023-07-13T04:40:36;17.70;99.90
34646;DHT22;20857;47.808;12.482;2023-07-13T04:43:02;17.60;99.90
34646;DHT22;20857;47.808;12.482;2023-07-13T04:45:27;17.60;99.90
34646;DHT22;20857;47.808;12.482;2023-07-13T04:47:53;17.50;99.90
34646;DHT22;20857;47.808;12.482;2023-07-13T04:50:19;17.60;99.90
34646;DHT22;20857;47.808;12.482;2023-07-13T04:52:52;17.50;99.90
34646;DHT22;20857;47.808;12.482;2023-07-13T04:55:18;17.50;99.90
34646;DHT22;20857;47.808;12.482;2023-07-13T04:57:45;17.60;99.90
34646;DHT22;20857;47.808;12.482;2023-07-13T05:00:11;17.70;99.90
34646;DHT22;20857;47.808;12.482;2023-07-13T05:02:38;17.80;99.90
34646;DHT22;20857;47.808;12.482;2023-07-13T05:05:05;17.70;99.90
34646;DHT22;20857;47.808;12.482;2023-07-13T05:07:31;17.80;99.90
34646;DHT22;20857;47.808;12.482;2023-07-13T05:09:59;17.80;99.90
34646;DHT22;20857;47.808;12.482;2023-07-13T05:12:25;17.90;99.90
34646;DHT22;20857;47.808;12.482;2023-07-13T05:14:50;17.80;99.90
34646;DHT22;20857;47.808;12.482;2023-07-13T05:17:16;17.70;99.90
34646;DHT22;20857;47.808;12.482;2023-07-13T05:19:42;17.70;99.90
34646;DHT22;20857;47.808;12.482;2023-07-13T05:22:07;17.70;99.90
34646;DHT22;20857;47.808;12.482;2023-07-13T05:24:33;17.80;99.90
34646;DHT22;20857;47.808;12.482;2023-07-13T05:26:59;17.70;99.90
34646;DHT22;20857;47.808;12.482;2023-07-13T05:29:24;17.70;99.90
34646;DHT22;20857;47.808;12.482;2023-07-13T05:31:50;17.70;99.90
34646;DHT22;20857;47.808;12.482;2023-07-13T05:34:16;17.60;99.90
34646;DHT22;20857;47.808;12.482;2023-07-13T05:36:42;17.60;99.90
34646;DHT22;20857;47.808;12.482;2023-07-13T05:39:08;17.60;99.90
34646;DHT22;20857;47.808;12.482;2023-07-13T05:41:35;17.40;99.90
34646;DHT22;20857;47.808;12.482;2023-07-13T05:44:01;17.20;99.90
34646;DHT22;20857;47.808;12.482;2023-07-13T05:46:26;17.20;99.90
34646;DHT22;20857;47.808;12.482;2023-07-13T05:48:52;17.10;99.90
34646;DHT22;20857;47.808;12.482;2023-07-13T05:51:17;16.80;99.90
34646;DHT22;20857;47.808;12.482;2023-07-13T05:53:43;16.70;99.90
34646;DHT22;20857;47.808;12.482;2023-07-13T05:56:08;16.40;99.90
34646;DHT22;20857;47.808;12.482;2023-07-13T05:58:34;16.30;99.90
34646;DHT22;20857;47.808;12.482;2023-07-13T06:01:06;16.40;99.90
34646;DHT22;20857;47.808;12.482;2023-07-13T06:03:32;16.30;99.90
34646;DHT22;20857;47.808;12.482;2023-07-13T06:05:58;16.30;99.90
34646;DHT22;20857;47.808;12.482;2023-07-13T06:08:26;16.50;99.90
34646;DHT22;20857;47.808;12.482;2023-07-13T06:10:51;16.70;99.90
34646;DHT22;20857;47.808;12.482;2023-07-13T06:13:17;16.80;99.90
34646;DHT22;20857;47.808;12.482;2023-07-13T06:15:50;16.80;99.90
34646;DHT22;20857;47.808;12.482;2023-07-13T06:18:16;16.90;99.90
34646;DHT22;20857;47.808;12.482;2023-07-13T06:20:41;17.00;99.90
34646;DHT22;20857;47.808;12.482;2023-07-13T06:23:07;17.00;99.90
34646;DHT22;20857;47.808;12.482;2023-07-13T06:25:33;17.10;99.90
34646;DHT22;20857;47.808;12.482;2023-07-13T06:27:58;17.10;99.90
34646;DHT22;20857;47.808;12.482;2023-07-13T06:30:24;17.10;99.90
34646;DHT22;20857;47.808;12.482;2023-07-13T06:32:49;17.10;99.90
34646;DHT22;20857;47.808;12.482;2023-07-13T06:35:15;17.30;99.90
34646;DHT22;20857;47.808;12.482;2023-07-13T06:37:41;17.40;99.90
34646;DHT22;20857;47.808;12.482;2023-07-13T06:40:07;17.40;99.90
34646;DHT22;20857;47.808;12.482;2023-07-13T06:42:33;17.50;99.90
34646;DHT22;20857;47.808;12.482;2023-07-13T06:44:58;17.50;99.90
34646;DHT22;20857;47.808;12.482;2023-07-13T06:47:24;17.50;99.90
34646;DHT22;20857;47.808;12.482;2023-07-13T06:49:49;17.60;99.90
34646;DHT22;20857;47.808;12.482;2023-07-13T06:52:15;17.60;99.90
34646;DHT22;20857;47.808;12.482;2023-07-13T06:54:40;17.70;99.90
34646;DHT22;20857;47.808;12.482;2023-07-13T06:57:06;17.90;99.90
34646;DHT22;20857;47.808;12.482;2023-07-13T06:59:32;17.90;99.90
34646;DHT22;20857;47.808;12.482;2023-07-13T07:01:58;18.10;99.90
34646;DHT22;20857;47.808;12.482;2023-07-13T07:04:24;18.10;99.90
34646;DHT22;20857;47.808;12.482;2023-07-13T07:06:49;18.10;99.90
34646;DHT22;20857;47.808;12.482;2023-07-13T07:09:15;18.00;99.90
34646;DHT22;20857;47.808;12.482;2023-07-13T07:11:42;18.00;99.90
34646;DHT22;20857;47.808;12.482;2023-07-13T07:14:08;17.90;99.90
34646;DHT22;20857;47.808;12.482;2023-07-13T07:16:34;17.80;99.90
34646;DHT22;20857;47.808;12.482;2023-07-13T07:18:59;17.80;99.90
34646;DHT22;20857;47.808;12.482;2023-07-13T07:21:25;17.70;99.90
34646;DHT22;20857;47.808;12.482;2023-07-13T07:23:51;17.80;99.90
34646;DHT22;20857;47.808;12.482;2023-07-13T07:26:17;17.70;99.90
34646;DHT22;20857;47.808;12.482;2023-07-13T07:28:43;17.60;99.90
34646;DHT22;20857;47.808;12.482;2023-07-13T07:31:09;17.60;99.90
34646;DHT22;20857;47.808;12.482;2023-07-13T07:33:34;17.50;99.90
34646;DHT22;20857;47.808;12.482;2023-07-13T07:36:00;17.50;99.90
34646;DHT22;20857;47.808;12.482;2023-07-13T07:38:26;17.50;99.90
34646;DHT22;20857;47.808;12.482;2023-07-13T07:40:52;17.60;99.90
34646;DHT22;20857;47.808;12.482;2023-07-13T07:43:18;17.60;99.90
34646;DHT22;20857;47.808;12.482;2023-07-13T07:45:45;17.70;99.90
34646;DHT22;20857;47.808;12.482;2023-07-13T07:48:11;17.80;99.90
34646;DHT22;20857;47.808;12.482;2023-07-13T07:50:36;17.90;99.90
34646;DHT22;20857;47.808;12.482;2023-07-13T07:53:02;17.80;99.90
34646;DHT22;20857;47.808;12.482;2023-07-13T07:55:28;17.80;99.90
34646;DHT22;20857;47.808;12.482;2023-07-13T07:57:55;18.00;99.90
34646;DHT22;20857;47.808;12.482;2023-07-13T08:00:21;18.10;99.90
34646;DHT22;20857;47.808;12.482;2023-07-13T08:02:46;18.30;99.90
34646;DHT22;20857;47.808;12.482;2023-07-13T08:05:12;18.50;99.90
34646;DHT22;20857;47.808;12.482;2023-07-13T08:07:38;18.70;99.90
34646;DHT22;20857;47.808;12.482;2023-07-13T08:10:05;18.80;99.90
34646;DHT22;20857;47.808;12.482;2023-07-13T08:12:34;19.20;99.90
34646;DHT22;20857;47.808;12.482;2023-07-13T08:15:00;19.40;99.90
34646;DHT22;20857;47.808;12.482;2023-07-13T08:17:26;19.80;99.90
34646;DHT22;20857;47.808;12.482;2023-07-13T08:19:52;20.10;99.90
34646;DHT22;20857;47.808;12.482;2023-07-13T08:22:18;20.20;99.90
34646;DHT22;20857;47.808;12.482;2023-07-13T08:24:43;20.20;99.90
34646;DHT22;20857;47.808;12.482;2023-07-13T08:27:10;20.50;99.90
34646;DHT22;20857;47.808;12.482;2023-07-13T08:29:37;20.50;99.90
34646;DHT22;20857;47.808;12.482;2023-07-13T08:32:02;20.50;99.90
34646;DHT22;20857;47.808;12.482;2023-07-13T08:34:28;20.40;99.90
34646;DHT22;20857;47.808;12.482;2023-07-13T08:36:54;20.60;99.90
34646;DHT22;20857;47.808;12.482;2023-07-13T08:39:19;20.70;99.90
34646;DHT22;20857;47.808;12.482;2023-07-13T08:41:47;20.90;99.90
34646;DHT22;20857;47.808;12.482;2023-07-13T08:44:24;20.80;99.90
34646;DHT22;20857;47.808;12.482;2023-07-13T08:46:53;20.70;99.90
34646;DHT22;20857;47.808;12.482;2023-07-13T08:49:22;20.70;99.90
34646;DHT22;20857;47.808;12.482;2023-07-13T08:51:59;20.80;99.90
34646;DHT22;20857;47.808;12.482;2023-07-13T08:54:36;20.90;99.90
34646;DHT22;20857;47.808;12.482;2023-07-13T08:57:14;20.70;99.90
34646;DHT22;20857;47.808;12.482;2023-07-13T08:59:40;20.50;99.90
34646;DHT22;20857;47.808;12.482;2023-07-13T09:05:00;20.20;99.90
34646;DHT22;20857;47.808;12.482;2023-07-13T09:10:31;20.20;99.90
34646;DHT22;20857;47.808;12.482;2023-07-13T09:13:34;20.40;99.90
34646;DHT22;20857;47.808;12.482;2023-07-13T09:16:03;20.70;99.90
34646;DHT22;20857;47.808;12.482;2023-07-13T09:18:37;20.90;99.90
34646;DHT22;20857;47.808;12.482;2023-07-13T09:21:09;21.10;99.90
34646;DHT22;20857;47.808;12.482;2023-07-13T09:23:36;21.20;99.90
34646;DHT22;20857;47.808;12.482;2023-07-13T09:26:22;21.20;99.90
34646;DHT22;20857;47.808;12.482;2023-07-13T09:28:59;21.20;99.90
34646;DHT22;20857;47.808;12.482;2023-07-13T09:31:43;21.10;99.90
34646;DHT22;20857;47.808;12.482;2023-07-13T09:34:11;21.00;99.90
34646;DHT22;20857;47.808;12.482;2023-07-13T09:36:37;21.20;99.90
34646;DHT22;20857;47.808;12.482;2023-07-13T09:44:31;21.10;99.90
34646;DHT22;20857;47.808;12.482;2023-07-13T09:46:58;21.30;99.90
34646;DHT22;20857;47.808;12.482;2023-07-13T09:49:26;21.60;99.90
34646;DHT22;20857;47.808;12.482;2023-07-13T09:52:14;21.90;99.90
34646;DHT22;20857;47.808;12.482;2023-07-13T09:54:44;22.30;99.90
34646;DHT22;20857;47.808;12.482;2023-07-13T09:57:16;22.30;99.90
34646;DHT22;20857;47.808;12.482;2023-07-13T09:59:48;22.30;99.90
34646;DHT22;20857;47.808;12.482;2023-07-13T10:02:34;22.00;99.90
34646;DHT22;20857;47.808;12.482;2023-07-13T10:07:32;21.60;99.90
34646;DHT22;20857;47.808;12.482;2023-07-13T10:10:01;21.50;99.90
34646;DHT22;20857;47.808;12.482;2023-07-13T10:12:30;21.40;99.90
34646;DHT22;20857;47.808;12.482;2023-07-13T10:15:01;21.20;99.90
34646;DHT22;20857;47.808;12.482;2023-07-13T10:17:31;21.00;99.90
34646;DHT22;20857;47.808;12.482;2023-07-13T10:20:03;20.70;99.90
34646;DHT22;20857;47.808;12.482;2023-07-13T10:22:39;20.60;99.90
34646;DHT22;20857;47.808;12.482;2023-07-13T10:25:20;20.40;99.90
34646;DHT22;20857;47.808;12.482;2023-07-13T10:27:55;20.30;99.90
34646;DHT22;20857;47.808;12.482;2023-07-13T10:30:35;20.10;99.90
34646;DHT22;20857;47.808;12.482;2023-07-13T10:33:10;19.90;99.90
34646;DHT22;20857;47.808;12.482;2023-07-13T10:35:37;19.90;99.90
34646;DHT22;20857;47.808;12.482;2023-07-13T10:38:11;19.80;99.90
34646;DHT22;20857;47.808;12.482;2023-07-13T10:40:43;19.70;99.90
34646;DHT22;20857;47.808;12.482;2023-07-13T10:43:35;19.70;99.90
34646;DHT22;20857;47.808;12.482;2023-07-13T10:46:06;19.20;99.90
34646;DHT22;20857;47.808;12.482;2023-07-13T10:48:34;18.90;99.90
34646;DHT22;20857;47.808;12.482;2023-07-13T10:51:03;18.60;99.90
34646;DHT22;20857;47.808;12.482;2023-07-13T10:53:33;18.50;99.90
34646;DHT22;20857;47.808;12.482;2023-07-13T10:58:34;18.40;99.90
34646;DHT22;20857;47.808;12.482;2023-07-13T11:01:14;18.60;99.90
34646;DHT22;20857;47.808;12.482;2023-07-13T11:11:38;18.80;99.90
34646;DHT22;20857;47.808;12.482;2023-07-13T11:14:25;18.80;99.90
34646;DHT22;20857;47.808;12.482;2023-07-13T11:16:50;19.00;99.90
34646;DHT22;20857;47.808;12.482;2023-07-13T11:22:11;19.10;99.90
34646;DHT22;20857;47.808;12.482;2023-07-13T11:27:39;19.00;99.90
34646;DHT22;20857;47.808;12.482;2023-07-13T11:33:12;18.50;99.90
34646;DHT22;20857;47.808;12.482;2023-07-13T11:35:51;18.40;99.90
34646;DHT22;20857;47.808;12.482;2023-07-13T11:41:14;18.00;99.90
34646;DHT22;20857;47.808;12.482;2023-07-13T11:43:40;17.80;99.90
34646;DHT22;20857;47.808;12.482;2023-07-13T11:48:46;17.70;99.90
34646;DHT22;20857;47.808;12.482;2023-07-13T11:51:27;17.80;99.90
34646;DHT22;20857;47.808;12.482;2023-07-13T11:53:55;18.00;99.90
34646;DHT22;20857;47.808;12.482;2023-07-13T11:56:23;18.00;99.90
34646;DHT22;20857;47.808;12.482;2023-07-13T11:58:54;17.90;99.90
34646;DHT22;20857;47.808;12.482;2023-07-13T12:01:28;18.10;99.90
34646;DHT22;20857;47.808;12.482;2023-07-13T12:04:01;18.20;99.90
34646;DHT22;20857;47.808;12.482;2023-07-13T12:06:33;18.20;99.90
34646;DHT22;20857;47.808;12.482;2023-07-13T12:09:08;18.20;99.90
34646;DHT22;20857;47.808;12.482;2023-07-13T12:11:39;18.10;99.90
34646;DHT22;20857;47.808;12.482;2023-07-13T12:14:05;18.30;99.90
34646;DHT22;20857;47.808;12.482;2023-07-13T12:16:34;18.40;99.90
34646;DHT22;20857;47.808;12.482;2023-07-13T12:19:01;18.50;99.90
34646;DHT22;20857;47.808;12.482;2023-07-13T12:21:38;18.70;99.90
34646;DHT22;20857;47.808;12.482;2023-07-13T12:24:04;18.80;99.90
34646;DHT22;20857;47.808;12.482;2023-07-13T12:26:31;18.90;99.90
34646;DHT22;20857;47.808;12.482;2023-07-13T12:28:59;19.10;99.90
34646;DHT22;20857;47.808;12.482;2023-07-13T12:34:14;19.80;99.90
34646;DHT22;20857;47.808;12.482;2023-07-13T12:36:54;20.60;99.90
34646;DHT22;20857;47.808;12.482;2023-07-13T12:39:23;21.90;99.90
34646;DHT22;20857;47.808;12.482;2023-07-13T12:41:50;23.50;99.90
34646;DHT22;20857;47.808;12.482;2023-07-13T12:44:21;24.50;99.90
34646;DHT22;20857;47.808;12.482;2023-07-13T12:47:05;24.90;99.90
34646;DHT22;20857;47.808;12.482;2023-07-13T12:49:41;25.00;99.90
34646;DHT22;20857;47.808;12.482;2023-07-13T12:52:19;26.00;99.90
34646;DHT22;20857;47.808;12.482;2023-07-13T12:54:57;26.10;99.90
34646;DHT22;20857;47.808;12.482;2023-07-13T12:57:23;25.60;99.90
34646;DHT22;20857;47.808;12.482;2023-07-13T12:59:52;24.80;99.90
34646;DHT22;20857;47.808;12.482;2023-07-13T13:02:28;25.00;99.90
34646;DHT22;20857;47.808;12.482;2023-07-13T13:04:56;24.70;99.90
34646;DHT22;20857;47.808;12.482;2023-07-13T13:07:23;26.20;99.90
34646;DHT22;20857;47.808;12.482;2023-07-13T13:09:48;27.50;99.90
34646;DHT22;20857;47.808;12.482;2023-07-13T13:12:14;27.60;99.90
34646;DHT22;20857;47.808;12.482;2023-07-13T13:14:40;28.80;99.90
34646;DHT22;20857;47.808;12.482;2023-07-13T13:17:24;28.90;98.40
34646;DHT22;20857;47.808;12.482;2023-07-13T13:19:52;29.40;95.90
34646;DHT22;20857;47.808;12.482;2023-07-13T13:22:19;29.70;96.20
34646;DHT22;20857;47.808;12.482;2023-07-13T13:24:45;29.80;96.20
34646;DHT22;20857;47.808;12.482;2023-07-13T13:27:17;29.50;96.80
34646;DHT22;20857;47.808;12.482;2023-07-13T13:29:43;29.90;96.60
34646;DHT22;20857;47.808;12.482;2023-07-13T13:32:14;30.40;96.60
34646;DHT22;20857;47.808;12.482;2023-07-13T13:34:41;30.00;95.50
34646;DHT22;20857;47.808;12.482;2023-07-13T13:37:21;29.80;96.30
34646;DHT22;20857;47.808;12.482;2023-07-13T13:39:48;30.10;94.20
34646;DHT22;20857;47.808;12.482;2023-07-13T13:42:14;29.90;94.40
34646;DHT22;20857;47.808;12.482;2023-07-13T13:44:40;30.10;94.60
34646;DHT22;20857;47.808;12.482;2023-07-13T13:47:28;29.90;95.60
34646;DHT22;20857;47.808;12.482;2023-07-13T13:49:54;30.00;95.50
34646;DHT22;20857;47.808;12.482;2023-07-13T13:52:20;30.40;94.70
34646;DHT22;20857;47.808;12.482;2023-07-13T13:54:46;31.00;94.20
34646;DHT22;20857;47.808;12.482;2023-07-13T13:57:11;31.50;94.30
34646;DHT22;20857;47.808;12.482;2023-07-13T13:59:38;31.30;95.10
34646;DHT22;20857;47.808;12.482;2023-07-13T14:02:28;31.70;94.70
34646;DHT22;20857;47.808;12.482;2023-07-13T14:05:01;32.50;94.00
34646;DHT22;20857;47.808;12.482;2023-07-13T14:07:31;32.10;91.50
34646;DHT22;20857;47.808;12.482;2023-07-13T14:09:58;32.30;91.70
34646;DHT22;20857;47.808;12.482;2023-07-13T14:12:28;31.90;90.40
34646;DHT22;20857;47.808;12.482;2023-07-13T14:14:55;31.90;93.60
34646;DHT22;20857;47.808;12.482;2023-07-13T14:17:26;32.20;92.60
34646;DHT22;20857;47.808;12.482;2023-07-13T14:19:53;32.10;93.20
34646;DHT22;20857;47.808;12.482;2023-07-13T14:22:26;31.30;93.80
34646;DHT22;20857;47.808;12.482;2023-07-13T14:24:55;31.50;93.70
34646;DHT22;20857;47.808;12.482;2023-07-13T14:27:21;32.00;93.00
34646;DHT22;20857;47.808;12.482;2023-07-13T14:29:47;32.00;93.30
34646;DHT22;20857;47.808;12.482;2023-07-13T14:32:13;31.20;93.40
34646;DHT22;20857;47.808;12.482;2023-07-13T14:34:39;30.50;93.70
34646;DHT22;20857;47.808;12.482;2023-07-13T14:37:08;29.20;95.10
34646;DHT22;20857;47.808;12.482;2023-07-13T14:39:37;28.60;95.20
34646;DHT22;20857;47.808;12.482;2023-07-13T14:42:04;28.60;96.60
34646;DHT22;20857;47.808;12.482;2023-07-13T14:44:30;29.10;94.00
34646;DHT22;20857;47.808;12.482;2023-07-13T14:47:03;29.00;93.90
34646;DHT22;20857;47.808;12.482;2023-07-13T14:49:32;28.70;95.40
34646;DHT22;20857;47.808;12.482;2023-07-13T14:52:02;28.50;95.90
34646;DHT22;20857;47.808;12.482;2023-07-13T14:54:29;28.70;94.80
34646;DHT22;20857;47.808;12.482;2023-07-13T14:56:54;28.90;95.30
34646;DHT22;20857;47.808;12.482;2023-07-13T14:59:20;29.60;94.50
34646;DHT22;20857;47.808;12.482;2023-07-13T15:01:47;29.70;94.50
34646;DHT22;20857;47.808;12.482;2023-07-13T15:04:14;29.10;93.40
34646;DHT22;20857;47.808;12.482;2023-07-13T15:07:00;28.20;94.30
34646;DHT22;20857;47.808;12.482;2023-07-13T15:09:27;27.30;95.10
34646;DHT22;20857;47.808;12.482;2023-07-13T15:11:55;26.70;96.30
34646;DHT22;20857;47.808;12.482;2023-07-13T15:14:21;26.50;96.70
34646;DHT22;20857;47.808;12.482;2023-07-13T15:16:49;27.50;96.90
34646;DHT22;20857;47.808;12.482;2023-07-13T15:19:16;28.30;95.80
34646;DHT22;20857;47.808;12.482;2023-07-13T15:21:43;28.70;96.00
34646;DHT22;20857;47.808;12.482;2023-07-13T15:24:10;29.70;93.90
34646;DHT22;20857;47.808;12.482;2023-07-13T15:26:36;30.80;91.50
34646;DHT22;20857;47.808;12.482;2023-07-13T15:29:02;30.50;91.70
34646;DHT22;20857;47.808;12.482;2023-07-13T15:31:28;30.60;91.50
34646;DHT22;20857;47.808;12.482;2023-07-13T15:33:57;30.30;91.40
34646;DHT22;20857;47.808;12.482;2023-07-13T15:36:24;30.20;91.10
34646;DHT22;20857;47.808;12.482;2023-07-13T15:38:53;29.60;92.80
34646;DHT22;20857;47.808;12.482;2023-07-13T15:41:24;28.80;94.00
34646;DHT22;20857;47.808;12.482;2023-07-13T15:43:52;27.90;94.40
34646;DHT22;20857;47.808;12.482;2023-07-13T15:46:19;28.20;92.30
34646;DHT22;20857;47.808;12.482;2023-07-13T15:48:46;29.30;91.90
34646;DHT22;20857;47.808;12.482;2023-07-13T15:51:20;30.00;90.90
34646;DHT22;20857;47.808;12.482;2023-07-13T15:53:48;30.70;92.20
34646;DHT22;20857;47.808;12.482;2023-07-13T15:56:28;31.30;92.00
34646;DHT22;20857;47.808;12.482;2023-07-13T15:58:56;31.30;90.90
34646;DHT22;20857;47.808;12.482;2023-07-13T16:01:22;31.30;91.00
34646;DHT22;20857;47.808;12.482;2023-07-13T16:03:49;30.40;89.50
34646;DHT22;20857;47.808;12.482;2023-07-13T16:06:19;28.90;91.00